Time;durP1;ratioP1;P1;durP2;ratioP2;P2;SDS_P1;SDS_P2;PMS_P1;PMS_P2;Temp;Humidity;BMP_temperature;BMP_pressure;BME280_temperature;BME280_humidity;BME280_pressure;Samples;Min_cycle;Max_cycle;Signal;HPM_P1;HPM_P2
2021/03/08 00:01:52;;;;;;;15.68;8.05;;;1.00;99.90;;;;;;5013858;28;20032;-64
2021/03/08 00:04:18;;;;;;;14.80;8.70;;;1.00;99.90;;;;;;5013927;28;20038;-64
2021/03/08 00:06:43;;;;;;;15.35;8.43;;;1.00;99.90;;;;;;5013764;28;20049;-64
2021/03/08 00:09:09;;;;;;;14.85;8.38;;;0.90;99.90;;;;;;5014000;28;20034;-64
2021/03/08 00:11:35;;;;;;;13.52;7.93;;;0.80;99.90;;;;;;5013676;28;20065;-63
2021/03/08 00:14:00;;;;;;;16.05;8.40;;;0.80;99.90;;;;;;4996202;28;20087;-63
2021/03/08 00:16:26;;;;;;;19.80;8.18;;;0.90;99.90;;;;;;5013764;28;20026;-63
2021/03/08 00:18:52;;;;;;;13.88;8.38;;;0.90;99.90;;;;;;5013804;28;20546;-63
2021/03/08 00:21:18;;;;;;;17.35;8.43;;;0.90;99.90;;;;;;5013222;28;20034;-63
2021/03/08 00:23:43;;;;;;;15.02;8.30;;;0.90;99.90;;;;;;5013588;28;20529;-63
2021/03/08 00:26:09;;;;;;;16.45;8.50;;;0.80;99.90;;;;;;4979664;28;20067;-63
2021/03/08 00:28:35;;;;;;;15.57;8.27;;;0.70;99.90;;;;;;4995702;28;20116;-63
2021/03/08 00:31:01;;;;;;;16.25;8.15;;;0.70;99.90;;;;;;5013092;28;20049;-63
2021/03/08 00:33:26;;;;;;;17.27;8.43;;;0.70;99.90;;;;;;5013462;28;20026;-63
2021/03/08 00:35:52;;;;;;;12.23;7.78;;;0.70;99.90;;;;;;5013235;28;20029;-63
2021/03/08 00:38:18;;;;;;;17.40;8.93;;;0.60;99.90;;;;;;4996108;28;20033;-63
2021/03/08 00:40:44;;;;;;;13.98;8.10;;;0.60;99.90;;;;;;5012915;28;20057;-63
2021/03/08 00:43:09;;;;;;;12.02;7.88;;;0.60;99.90;;;;;;4995855;28;20026;-63
2021/03/08 00:45:35;;;;;;;14.43;8.10;;;0.50;99.90;;;;;;5013271;28;20040;-63
2021/03/08 00:48:01;;;;;;;14.02;8.60;;;0.50;99.90;;;;;;5013238;28;20033;-63
2021/03/08 00:50:29;;;;;;;17.98;8.45;;;0.50;99.90;;;;;;5013033;28;20041;-63
2021/03/08 00:52:55;;;;;;;15.13;8.45;;;0.50;99.90;;;;;;5013354;28;20494;-63
2021/03/08 00:55:21;;;;;;;14.85;8.20;;;0.40;99.90;;;;;;5013082;28;20029;-64
2021/03/08 00:57:47;;;;;;;14.98;7.90;;;0.40;99.90;;;;;;4995718;28;20088;-64
2021/03/08 01:00:18;;;;;;;12.40;7.72;;;0.50;99.90;;;;;;4995273;28;20037;-64
2021/03/08 01:02:44;;;;;;;14.20;8.15;;;0.50;99.90;;;;;;5012880;28;20026;-64
2021/03/08 01:05:11;;;;;;;13.90;8.02;;;0.40;99.90;;;;;;4995634;28;20029;-64
2021/03/08 01:07:36;;;;;;;14.68;8.15;;;0.30;99.90;;;;;;5012728;28;20378;-63
2021/03/08 01:10:12;;;;;;;15.27;7.95;;;0.30;99.90;;;;;;5012991;28;20036;-64
2021/03/08 01:12:38;;;;;;;18.52;8.15;;;0.30;99.90;;;;;;5012764;28;20026;-64
2021/03/08 01:15:07;;;;;;;13.63;8.05;;;0.30;99.90;;;;;;5012677;28;20083;-64
2021/03/08 01:17:33;;;;;;;14.60;8.05;;;0.20;99.90;;;;;;5012673;28;20064;-64
2021/03/08 01:19:59;;;;;;;13.60;7.97;;;0.10;99.90;;;;;;5012859;28;20057;-64
2021/03/08 01:22:25;;;;;;;14.48;7.72;;;0.10;99.90;;;;;;5012611;28;20411;-64
2021/03/08 01:24:51;;;;;;;14.50;8.32;;;0.10;99.90;;;;;;5012785;28;20107;-64
2021/03/08 01:27:17;;;;;;;15.00;7.85;;;0.00;99.90;;;;;;5012759;28;20035;-63
2021/03/08 01:29:42;;;;;;;16.05;7.90;;;0.00;99.90;;;;;;5012175;28;20202;-64
2021/03/08 01:32:08;;;;;;;12.32;8.20;;;0.00;99.90;;;;;;5012667;28;20045;-63
2021/03/08 01:34:34;;;;;;;14.50;8.05;;;0.00;99.90;;;;;;5012668;28;20026;-64
2021/03/08 01:37:00;;;;;;;14.85;7.53;;;0.00;99.90;;;;;;5012288;28;20026;-64
2021/03/08 01:39:27;;;;;;;15.45;8.73;;;0.00;99.90;;;;;;5012279;28;20065;-63
2021/03/08 01:41:53;;;;;;;14.70;8.00;;;-0.10;99.90;;;;;;5012524;28;20057;-63
2021/03/08 01:44:18;;;;;;;15.93;8.77;;;-0.10;99.90;;;;;;5012560;28;20473;-64
2021/03/08 01:46:45;;;;;;;12.32;7.90;;;-0.10;99.90;;;;;;5012466;28;20467;-63
2021/03/08 01:49:10;;;;;;;12.48;7.63;;;-0.10;99.90;;;;;;4995016;28;20049;-64
2021/03/08 01:51:36;;;;;;;14.40;7.80;;;-0.20;99.90;;;;;;5012311;28;20121;-64
2021/03/08 01:54:02;;;;;;;14.30;7.72;;;-0.20;99.90;;;;;;5013122;28;20065;-63
2021/03/08 01:56:28;;;;;;;20.02;8.40;;;-0.30;99.90;;;;;;4998620;28;20379;-64
2021/03/08 01:58:54;;;;;;;12.70;7.43;;;-0.20;99.90;;;;;;4998622;28;20036;-64
2021/03/08 02:01:20;;;;;;;18.63;7.22;;;-0.30;99.90;;;;;;4998967;28;20487;-63
2021/03/08 02:03:46;;;;;;;12.68;7.20;;;-0.30;99.90;;;;;;5016226;28;20092;-63
2021/03/08 02:06:13;;;;;;;13.50;7.78;;;-0.30;99.90;;;;;;5016410;28;20029;-64
2021/03/08 02:08:38;;;;;;;13.40;8.23;;;-0.40;99.90;;;;;;4998428;28;20030;-64
2021/03/08 02:11:04;;;;;;;11.98;7.53;;;-0.30;99.90;;;;;;5016261;28;20129;-64
2021/03/08 02:13:49;;;;;;;14.43;8.15;;;-0.40;99.90;;;;;;5015987;28;20048;-63
2021/03/08 02:16:45;;;;;;;14.48;7.10;;;-0.30;99.90;;;;;;4998820;28;20057;-64
2021/03/08 02:20:02;;;;;;;13.52;7.65;;;-0.40;99.90;;;;;;5001707;28;20036;-63
2021/03/08 02:22:58;;;;;;;15.50;7.32;;;-0.30;99.90;;;;;;5015456;28;20128;-63
2021/03/08 02:26:10;;;;;;;14.20;8.00;;;-0.40;99.90;;;;;;5016099;28;20057;-63
2021/03/08 02:28:47;;;;;;;14.35;7.57;;;-0.40;99.90;;;;;;4983683;28;20029;-63
2021/03/08 02:31:25;;;;;;;16.08;7.55;;;-0.40;99.90;;;;;;5015972;28;20057;-63
2021/03/08 02:34:01;;;;;;;15.23;7.80;;;-0.50;99.90;;;;;;4998435;28;20132;-63
2021/03/08 02:36:32;;;;;;;14.40;7.05;;;-0.50;99.90;;;;;;4998884;28;20026;-63
2021/03/08 02:39:14;;;;;;;14.70;7.90;;;-0.50;99.90;;;;;;4998698;28;20054;-62
2021/03/08 02:41:42;;;;;;;16.58;8.52;;;-0.50;99.90;;;;;;5015410;28;20038;-63
2021/03/08 02:44:13;;;;;;;13.63;8.38;;;-0.60;99.90;;;;;;4998131;28;20044;-63
2021/03/08 02:46:44;;;;;;;;;;;-0.60;99.90;;;;;;4998643;28;20084;-63
2021/03/08 02:49:17;;;;;;;14.60;7.47;;;-0.60;99.90;;;;;;4998178;28;19913;-63
2021/03/08 02:52:08;;;;;;;19.80;8.00;;;-0.60;99.90;;;;;;4998233;28;20037;-63
2021/03/08 02:54:39;;;;;;;14.10;7.60;;;-0.70;99.90;;;;;;5000515;28;20025;-63
2021/03/08 02:57:11;;;;;;;12.10;7.53;;;-0.60;99.90;;;;;;4998359;28;20038;-63
2021/03/08 02:59:43;;;;;;;14.85;8.05;;;-0.70;99.90;;;;;;4998484;28;20048;-63
2021/03/08 03:02:10;;;;;;;16.50;8.20;;;-0.70;99.90;;;;;;5015430;28;20455;-63
2021/03/08 03:04:39;;;;;;;18.27;8.07;;;-0.70;99.90;;;;;;4997602;28;20029;-63
2021/03/08 03:07:06;;;;;;;14.82;7.95;;;-0.70;99.90;;;;;;4997976;28;20026;-63
2021/03/08 03:09:34;;;;;;;14.88;7.88;;;-0.70;99.90;;;;;;4997452;28;20030;-64
2021/03/08 03:12:01;;;;;;;15.32;7.90;;;-0.70;99.90;;;;;;4997715;28;20490;-63
2021/03/08 03:14:28;;;;;;;15.43;7.65;;;-0.70;99.90;;;;;;5015082;28;20506;-64
2021/03/08 03:16:59;;;;;;;15.00;8.35;;;-0.70;99.90;;;;;;5015024;28;20394;-64
2021/03/08 03:19:25;;;;;;;;;;;-0.70;99.90;;;;;;4998220;28;20022;-64
2021/03/08 03:21:53;;;;;;;17.77;7.65;;;-0.70;99.90;;;;;;4997386;28;20358;-64
2021/03/08 03:24:23;;;;;;;15.30;7.90;;;-0.70;99.90;;;;;;4997685;28;20044;-64
2021/03/08 03:26:50;;;;;;;14.25;8.07;;;-0.80;99.90;;;;;;5014377;28;20449;-63
2021/03/08 03:29:16;;;;;;;13.93;7.72;;;-0.80;99.90;;;;;;5014192;28;20038;-64
2021/03/08 03:31:42;;;;;;;14.65;8.05;;;-0.80;99.90;;;;;;4996880;28;20026;-64
2021/03/08 03:34:09;;;;;;;15.15;8.15;;;-0.70;99.90;;;;;;4980721;28;20096;-63
2021/03/08 03:36:39;;;;;;;16.27;7.72;;;-0.80;99.90;;;;;;5014358;28;20040;-64
2021/03/08 03:39:09;;;;;;;16.63;9.18;;;-0.80;99.90;;;;;;4996813;28;20041;-64
2021/03/08 03:41:35;;;;;;;15.23;8.65;;;-0.80;99.90;;;;;;5014169;28;20383;-64
2021/03/08 03:44:02;;;;;;;12.57;7.45;;;-0.80;99.90;;;;;;5014235;28;20069;-64
2021/03/08 03:46:28;;;;;;;13.48;7.60;;;-0.80;99.90;;;;;;4996923;28;20390;-64
2021/03/08 03:48:54;;;;;;;13.60;7.95;;;-0.80;99.90;;;;;;5014240;28;20033;-64
2021/03/08 03:51:21;;;;;;;17.25;8.48;;;-0.90;99.90;;;;;;5014360;28;20491;-63
2021/03/08 03:53:47;;;;;;;15.15;7.97;;;-0.90;99.90;;;;;;5014223;28;20041;-64
2021/03/08 03:56:15;;;;;;;17.13;8.50;;;-0.90;99.90;;;;;;4996895;28;20053;-63
2021/03/08 03:59:07;;;;;;;13.32;7.68;;;-0.90;99.90;;;;;;4996728;28;20042;-63
2021/03/08 04:01:40;;;;;;;13.32;7.22;;;-0.90;99.90;;;;;;4997342;28;20402;-63
2021/03/08 04:04:17;;;;;;;16.58;7.97;;;-0.90;99.90;;;;;;5014207;28;20038;-64
2021/03/08 04:06:48;;;;;;;15.80;7.97;;;-0.90;99.90;;;;;;5013887;28;20037;-64
2021/03/08 04:09:18;;;;;;;14.00;8.30;;;-0.90;99.90;;;;;;4996607;28;20037;-63
2021/03/08 04:11:45;;;;;;;16.13;8.57;;;-1.00;99.90;;;;;;5013809;28;20034;-64
2021/03/08 04:14:16;;;;;;;16.67;8.20;;;-1.00;99.90;;;;;;4996378;28;20026;-64
2021/03/08 04:16:46;;;;;;;13.68;7.97;;;-1.10;99.90;;;;;;5013383;28;20026;-64
2021/03/08 04:19:15;;;;;;;15.20;7.72;;;-1.10;99.90;;;;;;4996639;28;20037;-64
2021/03/08 04:21:41;;;;;;;13.73;7.90;;;-1.10;99.90;;;;;;4996179;28;20083;-64
2021/03/08 04:24:10;;;;;;;17.90;8.57;;;-1.20;99.90;;;;;;5013605;28;20037;-64
2021/03/08 04:26:39;;;;;;;14.35;8.65;;;-1.30;99.90;;;;;;4996367;28;20044;-64
2021/03/08 04:29:07;;;;;;;14.13;8.50;;;-1.20;99.90;;;;;;5013410;28;20054;-63
2021/03/08 04:31:34;;;;;;;17.05;8.40;;;-1.20;99.90;;;;;;4996396;28;20026;-63
2021/03/08 04:34:02;;;;;;;14.90;8.60;;;-1.20;99.90;;;;;;4995629;28;20030;-64
2021/03/08 04:36:29;;;;;;;15.27;8.27;;;-1.20;99.90;;;;;;4995768;28;20041;-63
2021/03/08 04:38:55;;;;;;;15.43;9.07;;;-1.20;99.90;;;;;;4995180;28;20132;-64
2021/03/08 04:41:25;;;;;;;15.23;8.90;;;-1.30;99.90;;;;;;5000693;28;20034;-63
2021/03/08 04:43:51;;;;;;;17.92;8.43;;;-1.30;99.90;;;;;;4995128;28;20041;-63
2021/03/08 04:46:17;;;;;;;18.23;9.18;;;-1.30;99.90;;;;;;4979250;28;20029;-63
2021/03/08 04:48:43;;;;;;;17.48;9.95;;;-1.40;99.90;;;;;;4995783;28;20507;-63
2021/03/08 04:51:11;;;;;;;17.67;9.25;;;-1.40;99.90;;;;;;5015708;28;20475;-64
2021/03/08 04:53:37;;;;;;;17.67;9.25;;;-1.50;99.90;;;;;;5013247;28;20490;-63
2021/03/08 04:56:06;;;;;;;18.67;9.75;;;-1.50;99.90;;;;;;5012644;28;20065;-63
2021/03/08 04:58:33;;;;;;;20.23;9.05;;;-1.50;99.90;;;;;;5012247;28;20072;-65
2021/03/08 05:00:59;;;;;;;18.17;10.55;;;-1.50;99.90;;;;;;5011786;28;20372;-64
2021/03/08 05:03:26;;;;;;;16.40;9.55;;;-1.50;99.90;;;;;;5012637;28;20036;-64
2021/03/08 05:05:55;;;;;;;16.70;9.23;;;-1.40;99.90;;;;;;4992745;28;20038;-63
2021/03/08 05:08:26;;;;;;;17.30;9.68;;;-1.50;99.90;;;;;;5004339;28;20034;-65
2021/03/08 05:10:54;;;;;;;13.30;6.73;;;-1.50;99.90;;;;;;5008311;28;20034;-65
2021/03/08 05:13:22;;;;;;;18.17;8.68;;;-1.50;99.90;;;;;;4995789;28;20041;-65
2021/03/08 05:15:50;;;;;;;20.45;9.27;;;-1.50;99.90;;;;;;4996256;28;20069;-64
2021/03/08 05:18:18;;;;;;;15.88;9.48;;;-1.60;99.90;;;;;;5012966;28;20479;-65
2021/03/08 05:20:46;;;;;;;15.50;8.77;;;-1.60;99.90;;;;;;5012549;28;20029;-65
2021/03/08 05:23:12;;;;;;;15.30;8.98;;;-1.60;99.90;;;;;;5011697;28;20040;-65
2021/03/08 05:25:41;;;;;;;15.82;8.68;;;-1.50;99.90;;;;;;5011133;28;20025;-64
2021/03/08 05:28:10;;;;;;;18.10;9.45;;;-1.40;99.90;;;;;;5011096;28;20062;-67
2021/03/08 05:30:38;;;;;;;22.30;10.57;;;-1.30;99.90;;;;;;5011826;28;20056;-67
2021/03/08 05:33:26;;;;;;;21.77;10.23;;;-1.20;99.90;;;;;;5012635;28;20084;-65
2021/03/08 05:35:55;;;;;;;20.48;9.82;;;-1.30;99.90;;;;;;5012509;28;20040;-66
2021/03/08 05:38:24;;;;;;;15.32;9.38;;;-1.40;99.90;;;;;;4995187;28;20478;-66
2021/03/08 05:41:16;;;;;;;19.05;9.65;;;-1.60;99.90;;;;;;5011940;28;20494;-66
2021/03/08 05:43:47;;;;;;;18.55;10.10;;;-1.60;99.90;;;;;;5012499;28;20044;-66
2021/03/08 05:46:24;;;;;;;;;;;-1.60;99.90;;;;;;5011504;28;20030;-65
2021/03/08 05:49:25;;;;;;;19.73;10.20;;;-1.60;99.90;;;;;;5012335;28;19975;-66
2021/03/08 05:52:47;;;;;;;16.15;9.13;;;-1.60;99.90;;;;;;5012405;28;20046;-66
2021/03/08 05:55:41;;;;;;;;;;;-1.70;99.90;;;;;;5005501;28;20045;-68
2021/03/08 05:58:10;;;;;;;17.70;8.65;;;-1.70;99.90;;;;;;5010872;28;19963;-68
2021/03/08 06:01:10;;;;;;;20.02;10.50;;;-1.70;99.90;;;;;;5012327;28;20033;-70
2021/03/08 06:03:56;;;;;;;16.30;9.32;;;-1.80;99.90;;;;;;5011185;28;20030;-69
2021/03/08 06:07:20;;;;;;;16.40;10.00;;;-1.70;99.90;;;;;;5011490;28;20034;-69
2021/03/08 06:10:06;;;;;;;18.40;9.35;;;-1.70;99.90;;;;;;5012221;28;20038;-69
2021/03/08 06:12:36;;;;;;;17.67;9.80;;;-1.90;99.90;;;;;;5011903;28;20120;-69
2021/03/08 06:15:15;;;;;;;20.30;9.77;;;-1.90;99.90;;;;;;5005314;28;20425;-69
2021/03/08 06:17:41;;;;;;;23.80;9.88;;;-1.90;99.90;;;;;;5008290;28;20489;-68
2021/03/08 06:20:09;;;;;;;19.33;10.23;;;-1.90;99.90;;;;;;5011258;28;20042;-68
2021/03/08 06:22:38;;;;;;;20.73;10.07;;;-1.90;99.90;;;;;;5011228;28;20503;-68
2021/03/08 06:25:05;;;;;;;20.58;11.63;;;-1.80;99.90;;;;;;5010441;28;20034;-68
2021/03/08 06:27:31;;;;;;;19.88;11.20;;;-1.70;99.90;;;;;;5012075;28;20084;-68
2021/03/08 06:29:57;;;;;;;25.52;10.15;;;-1.80;99.90;;;;;;5011536;28;20061;-68
2021/03/08 06:32:24;;;;;;;21.38;10.90;;;-1.70;99.90;;;;;;5011764;28;20042;-68
2021/03/08 06:34:50;;;;;;;21.58;10.13;;;-1.70;99.90;;;;;;5009003;28;20026;-68
2021/03/08 06:37:18;;;;;;;19.23;10.27;;;-1.60;99.90;;;;;;5012044;28;20037;-68
2021/03/08 06:39:46;;;;;;;18.42;10.68;;;-1.50;99.90;;;;;;5010798;28;20026;-68
2021/03/08 06:42:15;;;;;;;21.75;10.43;;;-1.40;99.90;;;;;;5014610;28;20033;-68
2021/03/08 06:44:44;;;;;;;17.80;9.55;;;-1.30;99.90;;;;;;5015439;28;20042;-68
2021/03/08 06:47:10;;;;;;;21.88;10.10;;;-1.40;99.90;;;;;;5010623;28;20095;-67
2021/03/08 06:49:37;;;;;;;17.80;9.52;;;-1.40;99.90;;;;;;4997542;28;20375;-67
2021/03/08 06:52:17;;;;;;;73.22;32.38;;;-1.20;99.90;;;;;;5014389;28;20025;-68
2021/03/08 06:54:57;;;;;;;29.08;16.95;;;-1.10;99.90;;;;;;5014953;28;20037;-68
2021/03/08 06:57:27;;;;;;;20.85;11.57;;;-1.00;99.90;;;;;;5013816;28;20521;-68
2021/03/08 06:59:58;;;;;;;24.77;12.15;;;-1.00;99.90;;;;;;5023928;28;20119;-68
2021/03/08 07:02:43;;;;;;;;;;;-1.00;99.90;;;;;;5035182;28;20437;-68
2021/03/08 07:05:22;;;;;;;21.02;10.00;;;-1.00;99.90;;;;;;5016707;28;19920;-68
2021/03/08 07:08:00;;;;;;;21.00;11.55;;;-0.90;99.90;;;;;;5034180;28;20468;-68
2021/03/08 07:10:36;;;;;;;22.10;10.50;;;-0.80;99.90;;;;;;5034707;28;20044;-69
2021/03/08 07:13:05;;;;;;;21.15;11.48;;;-0.70;99.90;;;;;;5017005;28;20048;-69
2021/03/08 07:15:32;;;;;;;21.45;10.82;;;-0.60;99.90;;;;;;5034392;28;20390;-68
2021/03/08 07:17:58;;;;;;;20.63;10.45;;;-0.40;99.90;;;;;;5034547;28;20029;-69
2021/03/08 07:20:27;;;;;;;17.17;9.65;;;-0.40;99.90;;;;;;5034407;28;20445;-68
2021/03/08 07:22:55;;;;;;;20.30;11.23;;;-0.20;99.90;;;;;;5034400;28;20030;-67
2021/03/08 07:25:31;;;;;;;21.80;11.25;;;-0.10;99.90;;;;;;5000641;28;20589;-69
2021/03/08 07:28:01;;;;;;;23.23;10.35;;;-0.10;99.90;;;;;;5000350;28;20156;-68
2021/03/08 07:30:28;;;;;;;18.40;10.05;;;-0.10;99.90;;;;;;5034116;28;20072;-69
2021/03/08 07:33:04;;;;;;;20.38;9.98;;;0.00;99.90;;;;;;5034190;28;20048;-68
2021/03/08 07:35:45;;;;;;;24.73;11.00;;;0.10;99.90;;;;;;5034472;28;20036;-68
2021/03/08 07:38:28;;;;;;;21.80;11.77;;;0.10;99.90;;;;;;5034187;28;20033;-68
2021/03/08 07:41:12;;;;;;;26.98;13.15;;;0.20;99.90;;;;;;5034067;28;20037;-68
2021/03/08 07:43:39;;;;;;;20.15;10.35;;;0.40;99.90;;;;;;5013587;28;20038;-68
2021/03/08 07:46:05;;;;;;;20.27;10.35;;;0.40;99.90;;;;;;5014183;28;20030;-68
2021/03/08 07:48:31;;;;;;;17.70;9.35;;;0.50;99.90;;;;;;5013089;28;20030;-67
2021/03/08 07:51:06;;;;;;;16.95;9.50;;;0.60;99.90;;;;;;5014164;28;20034;-68
2021/03/08 07:53:36;;;;;;;19.63;10.13;;;0.70;99.90;;;;;;5013449;28;20466;-68
2021/03/08 07:56:06;;;;;;;20.23;10.18;;;0.70;99.90;;;;;;5013002;28;20033;-68
2021/03/08 07:58:37;;;;;;;17.73;8.93;;;0.90;99.90;;;;;;5014190;28;20069;-68
2021/03/08 08:01:09;;;;;;;17.95;9.15;;;1.00;99.90;;;;;;5014103;28;20073;-68
2021/03/08 08:03:38;;;;;;;17.00;9.23;;;1.10;99.90;;;;;;5014018;28;20026;-69
2021/03/08 08:06:07;;;;;;;16.77;9.02;;;1.30;99.90;;;;;;5013872;28;20034;-68
2021/03/08 08:08:36;;;;;;;17.52;9.15;;;1.40;99.90;;;;;;4996398;28;20044;-68
2021/03/08 08:11:06;;;;;;;16.35;8.93;;;1.50;99.90;;;;;;4996139;28;20502;-68
2021/03/08 08:13:44;;;;;;;16.15;9.40;;;1.60;99.90;;;;;;5013746;28;20025;-68
2021/03/08 08:16:11;;;;;;;19.27;8.93;;;1.70;99.90;;;;;;5013682;28;20045;-67
2021/03/08 08:18:47;;;;;;;19.20;8.63;;;1.90;99.90;;;;;;4995869;28;20103;-68
2021/03/08 08:21:18;;;;;;;14.98;8.15;;;2.00;99.90;;;;;;5013502;28;20084;-68
2021/03/08 08:23:55;;;;;;;15.25;8.13;;;2.00;99.90;;;;;;5013231;28;20072;-68
2021/03/08 08:26:23;;;;;;;13.85;8.20;;;2.20;99.90;;;;;;5013516;28;20042;-68
2021/03/08 08:28:51;;;;;;;14.05;8.32;;;2.30;99.90;;;;;;5013311;28;20025;-67
2021/03/08 08:31:18;;;;;;;13.98;8.60;;;2.50;99.90;;;;;;5013609;28;20033;-69
2021/03/08 08:33:44;;;;;;;15.32;8.98;;;2.60;99.90;;;;;;4995775;28;20395;-68
2021/03/08 08:36:15;;;;;;;12.57;6.90;;;2.70;99.90;;;;;;5012580;28;20073;-68
2021/03/08 08:38:55;;;;;;;14.35;7.75;;;2.80;99.90;;;;;;5013038;28;20026;-69
2021/03/08 08:41:24;;;;;;;13.80;7.60;;;2.90;99.90;;;;;;5011832;28;20038;-68
2021/03/08 08:44:16;;;;;;;15.43;7.97;;;2.90;99.90;;;;;;5013127;28;20046;-69
2021/03/08 08:46:45;;;;;;;15.85;8.25;;;3.00;99.90;;;;;;4996455;28;20503;-69
2021/03/08 08:49:21;;;;;;;11.98;7.00;;;3.20;99.90;;;;;;5010982;28;20033;-68
2021/03/08 08:51:55;;;;;;;16.13;7.40;;;3.40;99.90;;;;;;5013126;28;20129;-68
2021/03/08 08:54:27;;;;;;;11.98;7.05;;;3.60;99.90;;;;;;5011575;28;20447;-68
2021/03/08 08:56:59;;;;;;;16.90;8.10;;;3.80;99.90;;;;;;5012713;28;20441;-68
2021/03/08 08:59:26;;;;;;;14.15;6.85;;;3.80;99.90;;;;;;5012982;28;20168;-68
2021/03/08 09:02:22;;;;;;;13.55;7.05;;;3.90;99.90;;;;;;5029436;28;20498;-68
2021/03/08 09:04:47;;;;;;;11.70;5.97;;;4.00;99.90;;;;;;5032673;28;20034;-68
2021/03/08 09:07:29;;;;;;;12.73;6.90;;;4.10;99.90;;;;;;5022074;28;20034;-68
2021/03/08 09:09:59;;;;;;;14.20;7.53;;;4.30;99.90;;;;;;5010659;28;20026;-68
2021/03/08 09:12:40;;;;;;;13.55;7.10;;;4.30;99.90;;;;;;5012646;28;20038;-65
2021/03/08 09:15:11;;;;;;;14.68;7.10;;;4.30;99.90;;;;;;5012698;28;20073;-68
2021/03/08 09:17:51;;;;;;;12.57;7.07;;;4.50;99.90;;;;;;5012575;28;20038;-67
2021/03/08 09:20:24;;;;;;;14.65;7.68;;;4.60;99.90;;;;;;5011103;28;20038;-68
2021/03/08 09:22:58;;;;;;;11.57;7.35;;;4.60;99.90;;;;;;5010939;28;20026;-68
2021/03/08 09:25:24;;;;;;;12.85;7.30;;;4.90;99.90;;;;;;5012700;28;20038;-67
2021/03/08 09:28:11;;;;;;;14.63;7.15;;;5.00;99.90;;;;;;5010982;28;20091;-68
2021/03/08 09:30:46;;;;;;;12.48;7.10;;;5.00;99.90;;;;;;5012012;28;20054;-67
2021/03/08 09:33:18;;;;;;;14.10;7.00;;;5.10;99.90;;;;;;5012055;28;20393;-67
2021/03/08 09:35:48;;;;;;;11.20;6.68;;;5.30;99.90;;;;;;5012322;28;20037;-67
2021/03/08 09:38:17;;;;;;;12.80;6.83;;;5.40;99.90;;;;;;5012276;28;20058;-66
2021/03/08 09:40:50;;;;;;;14.90;7.70;;;5.70;99.30;;;;;;5012017;28;20030;-67
2021/03/08 09:43:34;;;;;;;15.02;6.90;;;5.80;99.00;;;;;;5012240;28;20463;-67
2021/03/08 09:46:13;;;;;;;14.38;6.78;;;5.90;98.90;;;;;;5010936;28;20030;-67
2021/03/08 09:48:41;;;;;;;17.88;7.40;;;6.10;98.40;;;;;;5012308;28;20121;-66
2021/03/08 09:51:10;;;;;;;12.80;7.03;;;6.20;97.80;;;;;;5012037;28;20030;-67
2021/03/08 09:53:40;;;;;;;14.02;7.05;;;6.40;98.00;;;;;;5012350;28;20033;-67
2021/03/08 09:56:16;;;;;;;14.57;7.15;;;6.40;98.00;;;;;;5012187;28;20031;-67
2021/03/08 09:58:44;;;;;;;15.02;6.90;;;6.60;97.50;;;;;;5010829;28;20041;-66
2021/03/08 10:01:19;;;;;;;15.02;6.50;;;6.70;97.10;;;;;;5012282;28;20069;-67
2021/03/08 10:03:46;;;;;;;14.43;7.18;;;6.80;96.90;;;;;;5010810;28;20045;-67
2021/03/08 10:06:32;;;;;;;11.88;6.60;;;6.90;96.60;;;;;;5011026;28;20038;-67
2021/03/08 10:09:15;;;;;;;12.60;7.00;;;6.90;96.20;;;;;;5012081;28;20044;-67
2021/03/08 10:11:41;;;;;;;14.40;6.35;;;7.10;96.10;;;;;;5011233;28;20030;-67
2021/03/08 10:14:20;;;;;;;17.08;7.07;;;7.40;95.50;;;;;;5012037;28;20114;-67
2021/03/08 10:16:46;;;;;;;12.80;7.78;;;7.60;95.00;;;;;;5015651;28;20029;-67
2021/03/08 10:19:12;;;;;;;14.02;7.28;;;6.80;96.50;;;;;;5014474;28;20390;-67
2021/03/08 10:21:43;;;;;;;14.35;6.18;;;7.10;96.50;;;;;;5015983;28;20466;-67
2021/03/08 10:24:09;;;;;;;11.63;6.53;;;7.60;95.00;;;;;;5014317;28;20042;-66
2021/03/08 10:26:35;;;;;;;11.13;6.53;;;8.00;93.90;;;;;;5015953;28;20080;-67
2021/03/08 10:29:01;;;;;;;14.57;5.90;;;7.90;93.70;;;;;;5013772;28;20033;-65
2021/03/08 10:31:30;;;;;;;13.70;6.10;;;8.00;93.90;;;;;;5014692;28;20042;-67
2021/03/08 10:34:10;;;;;;;10.40;5.53;;;8.50;92.60;;;;;;5015671;28;20042;-67
2021/03/08 10:36:42;;;;;;;10.55;5.88;;;8.20;92.60;;;;;;5015545;28;20471;-66
2021/03/08 10:39:12;;;;;;;9.73;5.60;;;8.60;92.30;;;;;;5012226;28;20065;-65
2021/03/08 10:41:42;;;;;;;14.23;6.82;;;8.30;91.40;;;;;;5011196;28;20026;-65
2021/03/08 10:44:17;;;;;;;9.43;5.75;;;8.40;93.10;;;;;;5014819;28;20050;-66
2021/03/08 10:46:43;;;;;;;11.43;5.38;;;9.00;91.60;;;;;;4999131;28;20037;-64
2021/03/08 10:49:09;;;;;;;10.88;5.82;;;9.10;90.20;;;;;;4981103;28;20048;-66
2021/03/08 10:51:38;;;;;;;13.20;5.45;;;8.30;91.50;;;;;;5015467;28;20037;-64
2021/03/08 10:54:10;;;;;;;11.75;6.00;;;8.90;91.10;;;;;;5024615;28;20124;-65
2021/03/08 10:56:38;;;;;;;8.70;4.85;;;9.30;90.50;;;;;;5017125;28;20029;-64
2021/03/08 10:59:26;;;;;;;10.23;5.60;;;10.20;85.90;;;;;;5034836;28;20112;-65
2021/03/08 11:02:12;;;;;;;9.40;4.85;;;10.00;81.10;;;;;;5035158;28;20436;-64
2021/03/08 11:04:38;;;;;;;11.25;5.63;;;9.60;86.30;;;;;;5035033;28;20041;-65
2021/03/08 11:07:06;;;;;;;10.07;4.90;;;9.60;85.50;;;;;;5019707;28;20072;-65
2021/03/08 11:09:34;;;;;;;10.52;4.70;;;9.90;83.70;;;;;;5014972;28;20068;-64
2021/03/08 11:12:02;;;;;;;7.05;4.28;;;10.00;80.20;;;;;;5014494;28;20030;-64
2021/03/08 11:14:28;;;;;;;10.85;5.30;;;9.70;81.90;;;;;;5014586;28;20048;-66
2021/03/08 11:16:57;;;;;;;13.60;5.28;;;8.80;86.20;;;;;;5014915;28;20034;-65
2021/03/08 11:19:27;;;;;;;9.90;4.93;;;9.00;88.10;;;;;;5014460;28;20038;-63
2021/03/08 11:22:14;;;;;;;10.95;5.15;;;9.50;85.50;;;;;;5014449;28;20050;-64
2021/03/08 11:24:49;;;;;;;10.50;4.38;;;9.50;86.00;;;;;;5014073;28;20057;-64
2021/03/08 11:27:29;;;;;;;15.27;5.95;;;10.20;83.50;;;;;;5013101;28;20038;-60
2021/03/08 11:30:11;;;;;;;10.32;5.47;;;10.80;81.70;;;;;;5014380;28;20049;-65
2021/03/08 11:32:40;;;;;;;9.43;5.30;;;10.00;80.80;;;;;;4997116;28;20032;-65
2021/03/08 11:35:16;;;;;;;10.15;4.95;;;10.50;78.90;;;;;;5014374;28;20367;-66
2021/03/08 11:37:48;;;;;;;10.80;5.05;;;10.60;81.20;;;;;;4981862;28;20084;-67
2021/03/08 11:40:17;;;;;;;8.98;4.95;;;11.10;76.30;;;;;;4996824;28;20030;-65
2021/03/08 11:42:42;;;;;;;13.00;5.40;;;12.20;72.40;;;;;;5014360;28;20037;-65
2021/03/08 11:45:09;;;;;;;9.07;4.30;;;11.10;71.10;;;;;;5014179;28;20030;-65
2021/03/08 11:47:35;;;;;;;8.55;4.20;;;12.00;71.00;;;;;;5014524;28;20030;-65
2021/03/08 11:50:02;;;;;;;9.68;4.60;;;13.90;64.40;;;;;;5013879;28;20407;-65
2021/03/08 11:52:28;;;;;;;5.90;3.60;;;14.50;62.80;;;;;;4996977;28;20034;-66
2021/03/08 11:54:54;;;;;;;9.00;4.32;;;14.50;58.50;;;;;;5014245;28;20076;-66
2021/03/08 11:57:19;;;;;;;9.48;4.15;;;14.50;57.40;;;;;;4996280;28;20060;-65
2021/03/08 11:59:45;;;;;;;9.55;4.30;;;13.30;58.80;;;;;;4996713;28;20045;-66
2021/03/08 12:02:11;;;;;;;5.75;3.55;;;13.10;58.40;;;;;;5013766;28;20030;-66
2021/03/08 12:04:37;;;;;;;8.40;3.72;;;13.90;58.40;;;;;;5013654;28;20167;-65
2021/03/08 12:07:03;;;;;;;6.18;3.45;;;14.70;56.20;;;;;;5013960;28;20564;-65
2021/03/08 12:09:33;;;;;;;6.40;3.70;;;16.10;52.60;;;;;;4996080;28;20041;-65
2021/03/08 12:11:59;;;;;;;7.82;3.58;;;17.40;49.50;;;;;;4995351;28;20077;-65
2021/03/08 12:14:27;;;;;;;8.45;3.72;;;15.60;52.10;;;;;;4995589;28;20036;-65
2021/03/08 12:16:53;;;;;;;9.10;4.13;;;14.30;52.10;;;;;;4995935;28;20029;-65
2021/03/08 12:19:19;;;;;;;6.95;3.80;;;14.00;51.90;;;;;;5013641;28;20072;-66
2021/03/08 12:21:45;;;;;;;6.72;3.90;;;11.90;59.80;;;;;;5011989;28;20048;-65
2021/03/08 12:24:12;;;;;;;8.63;3.80;;;12.20;58.40;;;;;;5013533;28;20069;-66
2021/03/08 12:26:38;;;;;;;14.20;8.25;;;12.10;59.90;;;;;;5013615;28;20497;-65
2021/03/08 12:29:04;;;;;;;12.07;6.13;;;12.50;61.30;;;;;;5012157;28;20038;-65
2021/03/08 12:31:30;;;;;;;7.30;3.75;;;12.70;61.80;;;;;;5013094;28;20423;-64
2021/03/08 12:33:55;;;;;;;7.63;3.72;;;14.40;55.80;;;;;;5013249;28;20073;-65
2021/03/08 12:36:21;;;;;;;7.88;3.58;;;13.60;57.10;;;;;;5013214;28;20088;-65
2021/03/08 12:38:47;;;;;;;5.10;2.88;;;13.60;56.60;;;;;;5013002;28;20056;-65
2021/03/08 12:41:13;;;;;;;5.57;3.28;;;14.30;54.50;;;;;;5013259;28;20080;-65
2021/03/08 12:43:39;;;;;;;5.90;3.40;;;13.50;54.50;;;;;;5012184;28;20030;-65
2021/03/08 12:46:05;;;;;;;8.57;3.58;;;14.00;53.10;;;;;;5013057;28;20549;-65
2021/03/08 12:48:31;;;;;;;7.55;3.47;;;14.10;54.60;;;;;;5015682;28;20482;-66
2021/03/08 12:50:57;;;;;;;7.70;3.88;;;13.20;57.00;;;;;;5012864;28;20066;-65
2021/03/08 12:53:23;;;;;;;9.23;3.65;;;13.70;55.40;;;;;;5012935;28;20034;-65
2021/03/08 12:55:49;;;;;;;6.88;3.20;;;12.50;57.70;;;;;;5013187;28;20033;-64
2021/03/08 12:58:15;;;;;;;10.40;4.13;;;12.70;57.60;;;;;;4994988;28;20030;-65
2021/03/08 13:00:41;;;;;;;7.38;3.33;;;12.30;58.80;;;;;;4995487;28;20041;-65
2021/03/08 13:03:07;;;;;;;10.90;3.80;;;12.60;58.40;;;;;;5012669;28;20026;-66